createdAt,value
2022-09-23T00:00:12.014Z,99562.79
2022-09-23T00:01:14.225Z,99568.02
2022-09-23T00:02:16.506Z,99561.80
2022-09-23T00:03:18.562Z,99567.14
2022-09-23T00:04:20.636Z,99567.14
2022-09-23T00:05:22.656Z,99563.63
2022-09-23T00:06:24.925Z,99557.45
2022-09-23T00:07:26.915Z,99559.13
2022-09-23T00:08:29.097Z,99562.68
2022-09-23T00:09:31.355Z,99560.85
2022-09-23T00:10:37.255Z,99560.85
2022-09-23T00:11:39.335Z,99563.52
2022-09-23T00:12:42.187Z,99562.58
2022-09-23T00:13:44.689Z,99565.24
2022-09-23T00:14:46.684Z,99556.36
2022-09-23T00:15:48.997Z,99555.52
2022-09-23T00:16:51.106Z,99553.69
2022-09-23T00:17:53.321Z,99554.67
2022-09-23T00:18:55.403Z,99551.02
2022-09-23T00:19:57.535Z,99562.58
2022-09-23T00:22:16.057Z,99554.80
2022-09-23T00:23:18.037Z,99552.84
2022-09-23T00:24:20.026Z,99554.67
2022-09-23T00:25:22.017Z,99552.84
2022-09-23T00:26:24.535Z,99555.52
2022-09-23T00:27:26.542Z,99550.17
2022-09-23T00:28:29.530Z,99553.69
2022-09-23T00:29:33.777Z,99552.84
2022-09-23T00:30:35.971Z,99547.50
2022-09-23T00:31:39.173Z,99546.66
2022-09-23T00:32:41.388Z,99551.89
2022-09-23T00:33:44.866Z,99549.22
2022-09-23T00:34:46.933Z,99548.34
2022-09-23T00:35:49.030Z,99549.22
2022-09-23T00:36:51.532Z,99554.45
2022-09-23T00:37:54.554Z,99549.11
2022-09-23T00:38:56.692Z,99550.06
2022-09-23T00:39:59.685Z,99543.87
2022-09-23T00:41:02.204Z,99549.22
2022-09-23T00:42:05.769Z,99544.83
2022-09-23T00:43:11.538Z,99541.31
2022-09-23T00:45:51.217Z,99540.56
2022-09-23T00:46:53.468Z,99538.65
2022-09-23T00:47:59.377Z,99547.61
2022-09-23T00:50:37.523Z,99536.31
2022-09-23T00:51:43.345Z,99541.42
2022-09-23T00:52:45.396Z,99539.70
2022-09-23T00:53:47.923Z,99539.70
2022-09-23T00:54:51.413Z,99542.38
2022-09-23T00:55:58.251Z,99540.66
2022-09-23T00:57:01.428Z,99536.16
2022-09-23T00:58:03.592Z,99544.28
2022-09-23T00:59:06.827Z,99540.66
2022-09-23T01:00:11.324Z,99544.28
2022-09-23T01:01:15.371Z,99539.81
2022-09-23T01:02:19.616Z,99544.17
2022-09-23T01:03:21.809Z,99543.22
2022-09-23T01:04:24.243Z,99542.38
2022-09-23T01:05:26.841Z,99546.84
2022-09-23T01:06:29.031Z,99548.56
2022-09-23T01:07:31.004Z,99543.33
2022-09-23T01:08:33.115Z,99545.89
2022-09-23T01:09:35.386Z,99551.13
2022-09-23T01:10:44.439Z,99552.00
2022-09-23T01:13:21.751Z,99547.84
2022-09-23T01:14:33.563Z,99545.78
2022-09-23T01:18:21.477Z,99546.13
2022-09-23T01:19:47.355Z,99545.16
2022-09-23T01:20:56.550Z,99544.28
2022-09-23T01:22:02.591Z,99547.83
2022-09-23T01:23:09.179Z,99541.61
2022-09-23T01:26:07.208Z,99552.41
2022-09-23T01:27:37.123Z,99546.10
2022-09-23T01:28:56.051Z,99536.37
2022-09-23T01:30:16.583Z,99543.65
2022-09-23T01:31:31.718Z,99541.16
2022-09-23T01:32:59.286Z,99544.81
2022-09-23T01:34:22.097Z,99543.94
2022-09-23T01:35:57.109Z,99543.20
2022-09-23T01:37:36.958Z,99543.20
2022-09-23T01:38:45.956Z,99545.97
2022-09-23T01:39:54.617Z,99542.64
2022-09-23T01:41:07.799Z,99538.25
2022-09-23T01:43:32.102Z,99543.94
2022-09-23T01:45:50.256Z,99536.03
2022-09-23T01:48:25.379Z,99540.42
2022-09-23T01:49:48.770Z,99541.90
2022-09-23T01:50:57.352Z,99535.69
2022-09-23T01:53:35.520Z,99533.07
2022-09-23T01:56:06.316Z,99530.30
2022-09-23T01:57:18.648Z,99534.52
2022-09-23T01:58:24.381Z,99532.73
2022-09-23T01:59:40.214Z,99531.75
2022-09-23T02:00:46.908Z,99534.41
2022-09-23T02:03:14.728Z,99535.31
2022-09-23T02:04:22.260Z,99528.02
2022-09-23T02:05:30.459Z,99538.80
2022-09-23T02:06:39.240Z,99528.02
2022-09-23T02:09:01.397Z,99531.69
2022-09-23T02:11:18.392Z,99523.58
2022-09-23T02:12:20.744Z,99526.97
2022-09-23T02:13:29.467Z,99523.45
2022-09-23T02:15:49.206Z,99523.47
2022-09-23T02:16:51.613Z,99525.80
2022-09-23T02:17:57.532Z,99526.64
2022-09-23T02:19:19.955Z,99528.47
2022-09-23T02:20:24.579Z,99520.35
2022-09-23T02:22:50.554Z,99525.81
2022-09-23T02:25:07.767Z,99527.53
2022-09-23T02:26:20.216Z,99524.63
2022-09-23T02:27:43.614Z,99514.91
2022-09-23T02:29:08.741Z,99524.74
2022-09-23T02:31:43.045Z,99524.02
2022-09-23T02:32:59.561Z,99524.74
2022-09-23T02:34:22.156Z,99521.30
2022-09-23T02:35:57.195Z,99523.13
2022-09-23T02:37:21.555Z,99523.13
2022-09-23T02:40:00.949Z,99517.05
2022-09-23T02:41:07.291Z,99520.67
2022-09-23T02:42:16.058Z,99519.80
2022-09-23T02:43:24.956Z,99514.56
2022-09-23T02:44:27.091Z,99520.78
2022-09-23T02:45:30.296Z,99514.56
2022-09-23T02:46:32.720Z,99513.72
2022-09-23T02:47:35.128Z,99513.72
2022-09-23T02:50:05.156Z,99520.06
2022-09-23T02:51:07.913Z,99514.45
2022-09-23T02:52:10.258Z,99510.10
2022-09-23T02:53:12.362Z,99518.00
2022-09-23T02:54:17.342Z,99515.33
2022-09-23T02:55:19.737Z,99518.84
2022-09-23T02:56:21.818Z,99516.07
2022-09-23T02:57:23.845Z,99520.56
2022-09-23T02:58:26.022Z,99524.95
2022-09-23T02:59:28.449Z,99524.84
2022-09-23T03:00:40.244Z,99511.79
2022-09-23T03:01:49.411Z,99511.79
2022-09-23T03:04:49.249Z,99518.68
2022-09-23T03:05:56.599Z,99522.07
2022-09-23T03:07:05.793Z,99515.96
2022-09-23T03:08:11.724Z,99517.68
2022-09-23T03:09:26.470Z,99512.45
2022-09-23T03:11:01.739Z,99523.02
2022-09-23T03:12:24.728Z,99515.02
2022-09-23T03:15:05.125Z,99514.40
2022-09-23T03:16:20.338Z,99516.95
2022-09-23T03:17:32.893Z,99515.22
2022-09-23T03:18:54.736Z,99512.66
2022-09-23T03:21:18.620Z,99513.73
2022-09-23T03:22:33.019Z,99516.28
2022-09-23T03:23:36.076Z,99518.11
2022-09-23T03:24:38.759Z,99518.95
2022-09-23T03:25:41.326Z,99524.30
2022-09-23T03:26:44.906Z,99521.63
2022-09-23T03:27:47.496Z,99526.86
2022-09-23T03:28:49.544Z,99525.06
2022-09-23T03:29:52.936Z,99524.08
2022-09-23T03:30:55.203Z,99526.75
2022-09-23T03:31:57.799Z,99528.47
2022-09-23T03:33:00.035Z,99523.97
2022-09-23T03:34:04.159Z,99521.23
2022-09-23T03:35:08.655Z,99523.89
2022-09-23T03:36:11.238Z,99523.89
2022-09-23T03:37:19.062Z,99528.25
2022-09-23T03:38:22.305Z,99529.02
2022-09-23T03:39:30.948Z,99531.80
2022-09-23T03:40:36.458Z,99529.02
2022-09-23T03:41:47.053Z,99525.48
2022-09-23T03:42:49.210Z,99531.69
2022-09-23T03:43:52.470Z,99529.76
2022-09-23T03:44:54.967Z,99530.74
2022-09-23T03:45:57.327Z,99527.09
2022-09-23T03:47:01.025Z,99521.75
2022-09-23T03:48:04.124Z,99523.47
2022-09-23T03:49:28.602Z,99524.31
2022-09-23T03:50:30.777Z,99522.52
2022-09-23T03:51:33.491Z,99514.51
2022-09-23T03:52:35.531Z,99518.86
2022-09-23T03:53:37.546Z,99520.69
2022-09-23T03:54:39.538Z,99521.53
2022-09-23T03:55:41.534Z,99518.02
2022-09-23T03:56:43.751Z,99523.36
2022-09-23T03:57:46.911Z,99521.53
2022-09-23T03:58:50.208Z,99528.70
2022-09-23T03:59:53.889Z,99523.36
2022-09-23T04:00:56.136Z,99529.55
2022-09-23T04:01:59.881Z,99520.69
2022-09-23T04:03:04.552Z,99523.36
2022-09-23T04:04:08.262Z,99529.55
2022-09-23T04:05:11.063Z,99524.20
2022-09-23T04:06:15.330Z,99527.64
2022-09-23T04:07:17.372Z,99531.27
2022-09-23T04:08:19.575Z,99530.31
2022-09-23T04:09:22.309Z,99537.48
2022-09-23T04:10:24.653Z,99533.94
2022-09-23T04:12:40.792Z,99533.21
2022-09-23T04:13:42.829Z,99534.81
2022-09-23T04:14:44.933Z,99539.17
2022-09-23T04:15:49.410Z,99536.50
2022-09-23T04:16:51.756Z,99533.83
2022-09-23T04:17:53.897Z,99536.50
2022-09-23T04:18:56.516Z,99532.88
2022-09-23T04:19:58.558Z,99537.38
2022-09-23T04:21:01.162Z,99536.50
2022-09-23T04:22:03.767Z,99535.55
2022-09-23T04:23:06.150Z,99532.88
2022-09-23T04:24:08.460Z,99537.27
2022-09-23T04:25:10.823Z,99538.11
2022-09-23T04:26:14.954Z,99538.11
2022-09-23T04:27:18.190Z,99540.78
2022-09-23T04:28:21.690Z,99535.44
2022-09-23T04:29:24.086Z,99538.98
2022-09-23T04:30:26.405Z,99544.41
2022-09-23T04:31:29.358Z,99542.61
2022-09-23T04:32:31.636Z,99540.78
2022-09-23T04:33:34.261Z,99538.22
2022-09-23T04:34:37.443Z,99543.45
2022-09-23T04:35:40.439Z,99544.41
2022-09-23T04:36:43.576Z,99539.94
2022-09-23T04:37:47.956Z,99540.78
2022-09-23T04:38:51.483Z,99544.33
2022-09-23T04:39:53.555Z,99543.34
2022-09-23T04:40:55.693Z,99536.31
2022-09-23T04:41:57.879Z,99544.33
2022-09-23T04:43:02.249Z,99537.16
2022-09-23T04:44:04.670Z,99540.78
2022-09-23T04:45:08.388Z,99545.17
2022-09-23T04:46:13.289Z,99542.50
2022-09-23T04:47:16.830Z,99538.98
2022-09-23T04:48:19.223Z,99543.45
2022-09-23T04:49:21.345Z,99541.73
2022-09-23T04:50:26.390Z,99539.94
2022-09-23T04:51:30.767Z,99542.72
2022-09-23T04:52:33.114Z,99539.17
2022-09-23T04:53:36.318Z,99540.89
2022-09-23T04:54:40.055Z,99537.38
2022-09-23T04:55:43.335Z,99540.89
2022-09-23T04:56:46.598Z,99540.89
2022-09-23T04:57:48.901Z,99534.70
2022-09-23T04:58:51.752Z,99535.55
2022-09-23T04:59:53.902Z,99545.38
2022-09-23T05:00:59.533Z,99544.51
2022-09-23T05:02:01.694Z,99540.05
2022-09-23T05:03:04.527Z,99540.89
2022-09-23T05:04:08.870Z,99542.72
2022-09-23T05:05:12.032Z,99540.05
2022-09-23T05:06:14.854Z,99540.89
2022-09-23T05:07:17.002Z,99538.22
2022-09-23T05:08:19.113Z,99538.22
2022-09-23T05:09:23.323Z,99539.06
2022-09-23T05:10:25.747Z,99538.22
2022-09-23T05:11:29.058Z,99541.73
2022-09-23T05:12:31.145Z,99542.61
2022-09-23T05:13:33.825Z,99542.61
2022-09-23T05:14:36.973Z,99539.06
2022-09-23T05:15:40.156Z,99540.89
2022-09-23T05:16:42.589Z,99540.89
2022-09-23T05:17:45.466Z,99536.50
2022-09-23T05:18:47.841Z,99547.18
2022-09-23T05:19:50.456Z,99535.66
2022-09-23T05:20:53.912Z,99532.14
2022-09-23T05:21:56.276Z,99535.66
2022-09-23T05:22:58.907Z,99540.99
2022-09-23T05:24:01.743Z,99535.66
2022-09-23T05:25:04.823Z,99545.38
2022-09-23T05:26:11.444Z,99535.66
2022-09-23T05:27:13.699Z,99541.84
2022-09-23T05:28:16.717Z,99542.72
2022-09-23T05:29:19.362Z,99542.72
2022-09-23T05:30:21.755Z,99546.23
2022-09-23T05:31:26.351Z,99539.17
2022-09-23T05:32:29.768Z,99540.16
2022-09-23T05:33:35.430Z,99540.99
2022-09-23T05:34:37.731Z,99541.84
2022-09-23T05:35:47.932Z,99542.72
2022-09-23T05:36:50.345Z,99540.89
2022-09-23T05:37:52.473Z,99548.06
2022-09-23T05:38:54.590Z,99542.72
2022-09-23T05:39:56.594Z,99547.18
2022-09-23T05:41:03.444Z,99545.49
2022-09-23T05:42:07.324Z,99544.62
2022-09-23T05:43:10.217Z,99539.28
2022-09-23T05:44:13.430Z,99542.82
2022-09-23T05:45:15.781Z,99541.95
2022-09-23T05:46:20.579Z,99544.62
2022-09-23T05:47:24.059Z,99548.16
2022-09-23T05:48:27.527Z,99540.16
2022-09-23T05:49:48.186Z,99543.67
2022-09-23T05:50:34.779Z,99549.85
2022-09-23T05:51:37.046Z,99549.85
2022-09-23T05:52:39.140Z,99549.85
2022-09-23T05:53:41.365Z,99542.72
2022-09-23T05:54:43.391Z,99542.61
2022-09-23T05:55:45.538Z,99542.61
2022-09-23T05:56:47.957Z,99550.62
2022-09-23T05:57:50.099Z,99548.79
2022-09-23T05:58:53.963Z,99552.41
2022-09-23T05:59:56.707Z,99553.29
2022-09-23T06:00:59.107Z,99547.08
2022-09-23T06:02:01.802Z,99543.45
2022-09-23T06:03:04.291Z,99545.28
2022-09-23T06:04:06.587Z,99537.27
2022-09-23T06:05:11.275Z,99541.66
2022-09-23T06:06:14.344Z,99541.73
2022-09-23T06:07:16.449Z,99542.61
2022-09-23T06:08:18.590Z,99540.78
2022-09-23T06:09:21.819Z,99543.45
2022-09-23T06:10:24.824Z,99543.45
2022-09-23T06:11:29.258Z,99539.94
2022-09-23T06:12:31.531Z,99539.83
2022-09-23T06:13:34.557Z,99537.16
2022-09-23T06:14:36.811Z,99539.83
2022-09-23T06:15:39.124Z,99540.67
2022-09-23T06:16:41.502Z,99544.22
2022-09-23T06:17:43.661Z,99549.56
2022-09-23T06:18:45.787Z,99545.17
2022-09-23T06:19:48.161Z,99548.69
2022-09-23T06:20:50.437Z,99553.18
2022-09-23T06:21:53.362Z,99548.69
2022-09-23T06:22:58.626Z,99542.39
2022-09-23T06:24:01.209Z,99542.39
2022-09-23T06:25:04.317Z,99554.80
2022-09-23T06:26:08.980Z,99554.80
2022-09-23T06:27:12.560Z,99554.80
2022-09-23T06:28:14.952Z,99544.95
2022-09-23T06:29:17.874Z,99550.30
2022-09-23T06:30:23.772Z,99550.30
2022-09-23T06:31:25.960Z,99552.97
2022-09-23T06:32:29.802Z,99552.97
2022-09-23T06:33:36.603Z,99556.52
2022-09-23T06:34:48.714Z,99552.97
2022-09-23T06:35:42.721Z,99549.34
2022-09-23T06:36:46.594Z,99556.52
2022-09-23T06:37:49.420Z,99561.86
2022-09-23T06:38:52.315Z,99557.36
2022-09-23T06:39:54.684Z,99549.34
2022-09-23T06:40:58.479Z,99549.45
2022-09-23T06:42:01.389Z,99550.30
2022-09-23T06:43:03.588Z,99552.86
2022-09-23T06:44:06.383Z,99554.69
2022-09-23T06:45:09.796Z,99554.58
2022-09-23T06:46:14.663Z,99552.75
2022-09-23T06:47:17.515Z,99550.95
2022-09-23T06:48:20.116Z,99554.58
2022-09-23T06:49:22.839Z,99550.08
2022-09-23T06:50:26.561Z,99557.25
2022-09-23T06:51:28.882Z,99556.41
2022-09-23T06:52:31.092Z,99555.42
2022-09-23T06:53:33.596Z,99556.41
2022-09-23T06:54:35.604Z,99562.59
2022-09-23T06:55:37.882Z,99551.06
2022-09-23T06:56:40.227Z,99555.42
2022-09-23T06:57:43.160Z,99557.25
2022-09-23T06:58:45.851Z,99555.42
2022-09-23T06:59:49.573Z,99555.42
2022-09-23T07:00:52.664Z,99556.30
2022-09-23T07:01:55.129Z,99550.95
2022-09-23T07:02:57.410Z,99555.42
2022-09-23T07:04:00.025Z,99555.42
2022-09-23T07:05:02.498Z,99557.14
2022-09-23T07:06:05.630Z,99552.75
2022-09-23T07:07:07.999Z,99554.47
2022-09-23T07:08:10.225Z,99549.97
2022-09-23T07:09:13.202Z,99549.13
2022-09-23T07:10:15.844Z,99551.80
2022-09-23T07:11:18.110Z,99547.41
2022-09-23T07:12:20.326Z,99545.61
2022-09-23T07:13:22.783Z,99546.45
2022-09-23T07:14:24.902Z,99543.79
2022-09-23T07:15:27.592Z,99549.97
2022-09-23T07:16:30.510Z,99541.11
2022-09-23T07:17:32.997Z,99543.79
2022-09-23T07:18:36.933Z,99549.97
2022-09-23T07:19:40.067Z,99546.38
2022-09-23T07:20:42.450Z,99542.76
2022-09-23T07:21:47.615Z,99546.27
2022-09-23T07:22:51.213Z,99547.15
2022-09-23T07:23:53.367Z,99540.09
2022-09-23T07:24:55.516Z,99548.95
2022-09-23T07:25:58.127Z,99546.27
2022-09-23T07:27:01.261Z,99553.55
2022-09-23T07:28:03.617Z,99541.11
2022-09-23T07:29:05.835Z,99550.95
2022-09-23T07:30:20.005Z,99544.73
2022-09-23T07:31:18.650Z,99545.72
2022-09-23T07:32:20.612Z,99543.05
2022-09-23T07:33:31.863Z,99544.00
2022-09-23T07:34:26.959Z,99550.30
2022-09-23T07:35:29.668Z,99546.78
2022-09-23T07:36:31.852Z,99544.11
2022-09-23T07:37:34.464Z,99542.28
2022-09-23T07:38:37.417Z,99545.91
2022-09-23T07:39:40.656Z,99549.45
2022-09-23T07:40:44.582Z,99543.23
2022-09-23T07:41:48.981Z,99543.23
2022-09-23T07:42:51.255Z,99539.72
2022-09-23T07:43:53.497Z,99538.77
2022-09-23T07:44:55.524Z,99547.73
2022-09-23T07:47:11.336Z,99536.58
2022-09-23T07:48:13.403Z,99537.16
2022-09-23T07:49:15.609Z,99527.42
2022-09-23T07:50:19.722Z,99532.77
2022-09-23T07:52:40.127Z,99526.63
2022-09-23T07:53:42.781Z,99529.14
2022-09-23T07:54:46.418Z,99533.64
2022-09-23T07:57:05.204Z,99534.75
2022-09-23T07:58:07.302Z,99528.30
2022-09-23T07:59:11.578Z,99527.42
2022-09-23T08:00:16.263Z,99525.63
2022-09-23T08:01:18.906Z,99528.30
2022-09-23T08:02:21.344Z,99523.91
2022-09-23T08:03:24.373Z,99523.80
2022-09-23T08:04:29.423Z,99521.03
2022-09-23T08:05:32.367Z,99524.64
2022-09-23T08:06:43.945Z,99520.19
2022-09-23T08:07:46.311Z,99521.80
2022-09-23T08:08:53.070Z,99523.48
2022-09-23T08:09:52.435Z,99524.25
2022-09-23T08:11:03.420Z,99519.75
2022-09-23T08:12:05.926Z,99523.22
2022-09-23T08:13:09.126Z,99526.63
2022-09-23T08:14:12.098Z,99523.84
2022-09-23T08:15:14.595Z,99523.00
2022-09-23T08:16:18.008Z,99527.39
2022-09-23T08:17:20.346Z,99520.11
2022-09-23T08:18:22.692Z,99527.28
2022-09-23T08:19:26.076Z,99528.13
2022-09-23T08:20:28.436Z,99527.17
2022-09-23T08:21:31.261Z,99521.94
2022-09-23T08:22:34.755Z,99530.80
2022-09-23T08:23:36.942Z,99520.11
2022-09-23T08:24:39.261Z,99522.78
2022-09-23T08:25:45.518Z,99529.84
2022-09-23T08:26:48.513Z,99517.44
2022-09-23T08:27:51.849Z,99521.83
2022-09-23T08:28:54.474Z,99519.05
2022-09-23T08:29:57.763Z,99514.55
2022-09-23T08:30:59.965Z,99520.66
2022-09-23T08:32:02.070Z,99517.88
2022-09-23T08:33:05.158Z,99518.61
2022-09-23T08:34:07.928Z,99518.61
2022-09-23T08:35:11.210Z,99519.48
2022-09-23T08:36:14.566Z,99515.94
2022-09-23T08:37:17.637Z,99516.05
2022-09-23T08:38:19.900Z,99520.66
2022-09-23T08:39:23.103Z,99518.94
2022-09-23T08:40:26.294Z,99512.75
2022-09-23T08:41:47.006Z,99518.94
2022-09-23T08:42:49.690Z,99518.94
2022-09-23T08:45:08.081Z,99513.92
2022-09-23T08:46:10.517Z,99513.92
2022-09-23T08:48:49.390Z,99519.59
2022-09-23T08:50:19.403Z,99516.78
2022-09-23T08:51:24.795Z,99521.28
2022-09-23T08:52:48.400Z,99515.25
2022-09-23T08:53:50.557Z,99516.23
2022-09-23T08:54:55.432Z,99510.12
2022-09-23T08:57:14.071Z,99505.80
2022-09-23T08:58:35.601Z,99503.94
2022-09-23T08:59:41.053Z,99509.50
2022-09-23T09:00:47.493Z,99503.39
2022-09-23T09:01:52.141Z,99513.23
2022-09-23T09:02:54.497Z,99512.36
2022-09-23T09:03:58.512Z,99509.50
2022-09-23T09:05:03.234Z,99504.27
2022-09-23T09:06:06.071Z,99503.39
2022-09-23T09:08:24.407Z,99500.72
2022-09-23T09:09:31.697Z,99504.34
2022-09-23T09:10:36.976Z,99500.72
2022-09-23T09:11:46.596Z,99507.89
2022-09-23T09:13:02.399Z,99503.61
2022-09-23T09:14:11.793Z,99505.33
2022-09-23T09:15:25.362Z,99512.46
2022-09-23T09:16:58.519Z,99510.67
2022-09-23T09:17:40.725Z,99516.74
2022-09-23T09:19:11.958Z,99508.29
2022-09-23T09:21:34.275Z,99513.13
2022-09-23T09:22:52.017Z,99508.40
2022-09-23T09:23:58.176Z,99507.45
2022-09-23T09:25:04.152Z,99505.52
2022-09-23T09:26:10.395Z,99506.28
2022-09-23T09:27:12.962Z,99504.53
2022-09-23T09:28:35.646Z,99513.84
2022-09-23T09:29:40.883Z,99514.94
2022-09-23T09:30:48.366Z,99509.27
2022-09-23T09:31:49.303Z,99509.72
2022-09-23T09:33:07.003Z,99499.02
2022-09-23T09:34:16.944Z,99502.42
2022-09-23T09:36:41.195Z,99495.57
2022-09-23T09:37:46.087Z,99494.23
2022-09-23T09:38:50.016Z,99496.81
2022-09-23T09:39:54.807Z,99494.70
2022-09-23T09:40:59.724Z,99493.48
2022-09-23T09:42:03.201Z,99495.27
2022-09-23T09:43:06.441Z,99488.79
2022-09-23T09:44:24.525Z,99479.36
2022-09-23T09:45:39.680Z,99493.42
2022-09-23T09:46:57.889Z,99492.57
2022-09-23T09:49:56.091Z,99490.73
2022-09-23T09:50:59.196Z,99498.03
2022-09-23T09:52:22.331Z,99486.16
2022-09-23T09:53:26.368Z,99498.25
2022-09-23T09:54:29.828Z,99487.16
2022-09-23T09:55:31.983Z,99493.08
2022-09-23T09:56:34.320Z,99498.03
2022-09-23T09:57:38.323Z,99488.81
2022-09-23T09:58:46.429Z,99492.06
2022-09-23T09:59:49.156Z,99489.89
2022-09-23T10:00:52.489Z,99495.61
2022-09-23T10:02:27.212Z,99484.09
2022-09-23T10:03:55.683Z,99487.62
2022-09-23T10:04:58.698Z,99486.59
2022-09-23T10:06:02.015Z,99491.72
2022-09-23T10:07:12.240Z,99495.81
2022-09-23T10:09:36.601Z,99484.56
2022-09-23T10:10:38.863Z,99491.42
2022-09-23T10:11:41.702Z,99489.80
2022-09-23T10:12:44.807Z,99486.66
2022-09-23T10:14:06.388Z,99495.42
2022-09-23T10:15:12.381Z,99492.85
2022-09-23T10:16:15.231Z,99496.07
2022-09-23T10:17:33.873Z,99495.12
2022-09-23T10:18:48.892Z,99495.12
2022-09-23T10:19:58.165Z,99491.52
2022-09-23T10:21:11.635Z,99492.47
2022-09-23T10:22:20.590Z,99487.14
2022-09-23T10:23:26.477Z,99494.28
2022-09-23T10:24:29.673Z,99490.00
2022-09-23T10:25:32.763Z,99492.47
2022-09-23T10:26:44.317Z,99491.23
2022-09-23T10:27:46.519Z,99483.82
2022-09-23T10:28:54.565Z,99488.98
2022-09-23T10:29:58.994Z,99493.47
2022-09-23T10:32:34.405Z,99488.33
2022-09-23T10:35:09.882Z,99489.47
2022-09-23T10:37:42.629Z,99486.04
2022-09-23T10:38:44.895Z,99492.71
2022-09-23T10:39:47.006Z,99493.75
2022-09-23T10:40:49.438Z,99486.91
2022-09-23T10:42:01.623Z,99492.53
2022-09-23T10:43:35.729Z,99492.53
2022-09-23T10:44:42.187Z,99492.23
2022-09-23T10:45:50.184Z,99502.04
2022-09-23T10:47:05.190Z,99494.99
2022-09-23T10:48:11.174Z,99494.38
2022-09-23T10:49:44.720Z,99487.53
2022-09-23T10:50:52.058Z,99493.89
2022-09-23T10:52:14.842Z,99484.86
2022-09-23T10:53:45.504Z,99492.17
2022-09-23T10:55:06.867Z,99490.64
2022-09-23T10:56:15.489Z,99489.02
2022-09-23T10:57:27.138Z,99484.83
2022-09-23T11:00:20.424Z,99477.52
2022-09-23T11:01:34.901Z,99478.26
2022-09-23T11:02:40.953Z,99469.33
2022-09-23T11:03:53.289Z,99481.80
2022-09-23T11:05:14.636Z,99474.56
2022-09-23T11:06:27.606Z,99464.66
2022-09-23T11:09:00.611Z,99477.23
2022-09-23T11:10:44.959Z,99476.94
2022-09-23T11:11:32.493Z,99482.10
2022-09-23T11:14:03.191Z,99475.25
2022-09-23T11:15:15.620Z,99472.98
2022-09-23T11:16:48.600Z,99477.13
2022-09-23T11:17:58.398Z,99472.39
2022-09-23T11:20:41.119Z,99475.25
2022-09-23T11:23:15.493Z,99482.20
2022-09-23T11:24:53.424Z,99487.04
2022-09-23T11:26:05.256Z,99430.15
2022-09-23T11:27:14.139Z,99476.97
2022-09-23T11:28:23.555Z,99472.69
2022-09-23T11:29:35.339Z,99472.09
2022-09-23T11:32:44.178Z,99464.94
2022-09-23T11:33:53.052Z,99462.72
2022-09-23T11:35:02.300Z,99463.52
2022-09-23T11:36:07.625Z,99461.05
2022-09-23T11:37:14.649Z,99456.91
2022-09-23T11:38:19.445Z,99462.42
2022-09-23T11:40:43.811Z,99458.08
2022-09-23T11:41:44.075Z,99463.77
2022-09-23T11:42:53.353Z,99469.58
2022-09-23T11:44:02.130Z,99461.22
2022-09-23T11:46:38.196Z,99457.06
2022-09-23T11:47:44.074Z,99460.03
2022-09-23T11:48:52.666Z,99457.06
2022-09-23T11:49:59.650Z,99448.80
2022-09-23T11:51:18.937Z,99450.11
2022-09-23T11:52:34.108Z,99455.02
2022-09-23T11:53:43.020Z,99453.77
2022-09-23T11:54:51.408Z,99450.83
2022-09-23T11:57:12.615Z,99446.86
2022-09-23T11:58:25.593Z,99454.38
2022-09-23T11:59:41.340Z,99448.83
2022-09-23T12:02:31.047Z,99443.28
2022-09-23T12:04:00.787Z,99451.88
2022-09-23T12:05:10.342Z,99447.42
2022-09-23T12:06:18.877Z,99449.98
2022-09-23T12:07:24.059Z,99449.03
2022-09-23T12:08:36.883Z,99448.93
2022-09-23T12:10:04.219Z,99445.39
2022-09-23T12:11:27.435Z,99440.82
2022-09-23T12:12:47.217Z,99445.20
2022-09-23T12:14:06.768Z,99444.22
2022-09-23T12:15:18.640Z,99445.00
2022-09-23T12:16:40.342Z,99448.50
2022-09-23T12:18:09.698Z,99449.34
2022-09-23T12:19:28.416Z,99445.73
2022-09-23T12:20:37.442Z,99447.55
2022-09-23T12:21:51.458Z,99445.73
2022-09-23T12:23:01.198Z,99448.30
2022-09-23T12:25:46.253Z,99450.14
2022-09-23T12:26:50.944Z,99445.52
2022-09-23T12:27:53.411Z,99452.68
2022-09-23T12:29:02.271Z,99464.30
2022-09-23T12:30:08.629Z,99457.28
2022-09-23T12:31:13.057Z,99457.46
2022-09-23T12:32:18.318Z,99456.62
2022-09-23T12:33:26.921Z,99452.13
2022-09-23T12:34:41.269Z,99451.17
2022-09-23T12:35:45.058Z,99450.12
2022-09-23T12:36:47.904Z,99451.73
2022-09-23T12:37:50.051Z,99453.52
2022-09-23T12:39:12.481Z,99456.12
2022-09-23T12:40:31.863Z,99452.58
2022-09-23T12:41:39.365Z,99457.70
2022-09-23T12:42:43.368Z,99454.84
2022-09-23T12:45:31.686Z,99459.14
2022-09-23T12:46:35.670Z,99457.09
2022-09-23T12:47:39.280Z,99459.87
2022-09-23T12:48:44.900Z,99453.69
2022-09-23T12:49:48.741Z,99454.42
2022-09-23T12:52:21.810Z,99446.42
2022-09-23T12:53:37.355Z,99447.08
2022-09-23T12:54:40.860Z,99452.30
2022-09-23T12:55:44.889Z,99452.30
2022-09-23T12:56:57.182Z,99450.70
2022-09-23T12:58:00.362Z,99449.85
2022-09-23T12:59:12.596Z,99449.08
2022-09-23T13:01:36.765Z,99445.69
2022-09-23T13:02:51.798Z,99449.92
2022-09-23T13:03:56.046Z,99446.41
2022-09-23T13:05:19.605Z,99445.36
2022-09-23T13:06:21.971Z,99449.85
2022-09-23T13:07:26.396Z,99448.03
2022-09-23T13:08:28.582Z,99447.08
2022-09-23T13:09:32.534Z,99447.08
2022-09-23T13:10:47.414Z,99446.09
2022-09-23T13:11:49.530Z,99444.30
2022-09-23T13:12:51.603Z,99444.30
2022-09-23T13:13:54.763Z,99453.14
2022-09-23T13:14:59.187Z,99452.20
2022-09-23T13:16:25.878Z,99449.42
2022-09-23T13:17:34.952Z,99452.75
2022-09-23T13:18:58.331Z,99450.92
2022-09-23T13:21:18.815Z,99452.97
2022-09-23T13:22:42.000Z,99452.83
2022-09-23T13:24:14.021Z,99452.83
2022-09-23T13:26:32.156Z,99451.98
2022-09-23T13:27:34.656Z,99454.54
2022-09-23T13:28:40.552Z,99451.87
2022-09-23T13:30:00.496Z,99453.59
2022-09-23T13:31:04.853Z,99450.81
2022-09-23T13:33:41.350Z,99452.86
2022-09-23T13:34:45.537Z,99454.44
2022-09-23T13:35:49.032Z,99453.59
2022-09-23T13:36:52.546Z,99449.97
2022-09-23T13:37:55.924Z,99455.31
2022-09-23T13:40:29.133Z,99447.31
2022-09-23T13:41:31.948Z,99449.75
2022-09-23T13:42:35.314Z,99447.09
2022-09-23T13:43:45.110Z,99453.27
2022-09-23T13:44:48.091Z,99447.82
2022-09-23T13:45:50.521Z,99452.09
2022-09-23T13:46:55.261Z,99444.86
2022-09-23T13:49:28.588Z,99443.03
2022-09-23T13:50:35.015Z,99440.14
2022-09-23T13:51:35.996Z,99447.20
2022-09-23T13:52:38.062Z,99445.48
2022-09-23T13:53:41.023Z,99443.58
2022-09-23T13:54:49.040Z,99446.14
2022-09-23T13:56:07.312Z,99437.17
2022-09-23T13:57:31.290Z,99443.36
2022-09-23T13:58:34.818Z,99442.52
2022-09-23T13:59:37.528Z,99440.58
2022-09-23T14:00:45.519Z,99438.75
2022-09-23T14:01:49.029Z,99436.08
2022-09-23T14:02:51.389Z,99442.19
2022-09-23T14:03:53.537Z,99442.19
2022-09-23T14:04:57.277Z,99440.36
2022-09-23T14:06:00.107Z,99442.08
2022-09-23T14:07:03.611Z,99446.58
2022-09-23T14:08:07.888Z,99444.75
2022-09-23T14:09:11.640Z,99446.58
2022-09-23T14:10:20.121Z,99451.91
2022-09-23T14:11:25.392Z,99442.19
2022-09-23T14:12:28.226Z,99447.53
2022-09-23T14:13:33.416Z,99451.15
2022-09-23T14:14:36.326Z,99447.64
2022-09-23T14:15:39.021Z,99450.30
2022-09-23T14:16:41.401Z,99444.09
2022-09-23T14:18:02.682Z,99450.30
2022-09-23T14:19:05.940Z,99451.15
2022-09-23T14:20:16.011Z,99456.48
2022-09-23T14:21:37.389Z,99457.36
2022-09-23T14:22:39.671Z,99460.11